sensor_id;sensor_type;location;lat;lon;timestamp;pressure;altitude;pressure_sealevel;temperature;humidity
48976;BME280;34791;52.752;8.346;2023-03-03T00:00:48;147762.97;;;1.26;100.00
48976;BME280;34791;52.752;8.346;2023-03-03T00:03:17;147778.38;;;1.32;100.00
48976;BME280;34791;52.752;8.346;2023-03-03T00:05:43;147773.22;;;1.30;100.00
48976;BME280;34791;52.752;8.346;2023-03-03T00:08:08;147768.09;;;1.28;100.00
48976;BME280;34791;52.752;8.346;2023-03-03T00:10:35;147770.66;;;1.29;100.00
48976;BME280;34791;52.752;8.346;2023-03-03T00:13:00;147775.78;;;1.31;100.00
48976;BME280;34791;52.752;8.346;2023-03-03T00:15:26;147779.66;;;1.32;100.00
48976;BME280;34791;52.752;8.346;2023-03-03T00:17:53;147765.53;;;1.27;100.00
48976;BME280;34791;52.752;8.346;2023-03-03T00:20:35;147769.38;;;1.28;100.00
48976;BME280;34791;52.752;8.346;2023-03-03T00:23:19;147791.22;;;1.37;100.00
48976;BME280;34791;52.752;8.346;2023-03-03T00:25:49;147786.09;;;1.35;100.00
48976;BME280;34791;52.752;8.346;2023-03-03T00:28:29;147786.09;;;1.35;100.00
48976;BME280;34791;52.752;8.346;2023-03-03T00:30:58;147788.66;;;1.36;100.00
48976;BME280;34791;52.752;8.346;2023-03-03T00:33:32;147786.09;;;1.35;100.00
48976;BME280;34791;52.752;8.346;2023-03-03T00:38:46;147770.66;;;1.29;100.00
48976;BME280;34791;52.752;8.346;2023-03-03T00:41:22;147783.53;;;1.34;100.00
48976;BME280;34791;52.752;8.346;2023-03-03T00:43:49;147778.38;;;1.32;100.00
48976;BME280;34791;52.752;8.346;2023-03-03T00:46:20;147760.41;;;1.25;100.00
48976;BME280;34791;52.752;8.346;2023-03-03T00:48:47;147747.53;;;1.20;100.00
48976;BME280;34791;52.752;8.346;2023-03-03T00:53:48;147739.84;;;1.16;100.00
48976;BME280;34791;52.752;8.346;2023-03-03T00:56:13;147746.25;;;1.19;100.00
48976;BME280;34791;52.752;8.346;2023-03-03T00:58:39;147755.28;;;1.23;100.00
48976;BME280;34791;52.752;8.346;2023-03-03T01:01:04;147765.53;;;1.27;100.00
48976;BME280;34791;52.752;8.346;2023-03-03T01:03:30;147764.25;;;1.26;100.00
48976;BME280;34791;52.752;8.346;2023-03-03T01:05:56;147755.28;;;1.23;100.00
48976;BME280;34791;52.752;8.346;2023-03-03T01:08:22;147754.00;;;1.22;100.00
48976;BME280;34791;52.752;8.346;2023-03-03T01:10:52;147747.53;;;1.20;100.00
48976;BME280;34791;52.752;8.346;2023-03-03T01:13:23;147755.28;;;1.23;100.00
48976;BME280;34791;52.752;8.346;2023-03-03T01:15:50;147744.97;;;1.18;100.00
48976;BME280;34791;52.752;8.346;2023-03-03T01:18:15;147755.28;;;1.23;100.00
48976;BME280;34791;52.752;8.346;2023-03-03T01:20:41;147752.72;;;1.22;100.00
48976;BME280;34791;52.752;8.346;2023-03-03T01:23:07;147766.81;;;1.27;100.00
48976;BME280;34791;52.752;8.346;2023-03-03T01:25:32;147757.84;;;1.24;100.00
48976;BME280;34791;52.752;8.346;2023-03-03T01:27:58;147775.78;;;1.31;100.00
48976;BME280;34791;52.752;8.346;2023-03-03T01:30:24;147778.38;;;1.32;100.00
48976;BME280;34791;52.752;8.346;2023-03-03T01:32:50;147770.66;;;1.29;100.00
48976;BME280;34791;52.752;8.346;2023-03-03T01:35:15;147765.53;;;1.27;100.00
48976;BME280;34791;52.752;8.346;2023-03-03T01:37:41;147773.22;;;1.30;100.00
48976;BME280;34791;52.752;8.346;2023-03-03T01:40:13;147777.06;;;1.31;100.00
48976;BME280;34791;52.752;8.346;2023-03-03T01:42:39;147773.22;;;1.30;100.00
48976;BME280;34791;52.752;8.346;2023-03-03T01:47:42;147779.66;;;1.32;100.00
48976;BME280;34791;52.752;8.346;2023-03-03T01:50:11;147762.97;;;1.26;100.00
48976;BME280;34791;52.752;8.346;2023-03-03T01:52:40;147764.25;;;1.26;100.00
48976;BME280;34791;52.752;8.346;2023-03-03T01:55:31;147757.84;;;1.24;100.00
48976;BME280;34791;52.752;8.346;2023-03-03T01:58:06;147750.09;;;1.21;100.00
48976;BME280;34791;52.752;8.346;2023-03-03T02:00:35;147760.41;;;1.25;100.00
48976;BME280;34791;52.752;8.346;2023-03-03T02:03:02;147757.84;;;1.24;100.00
48976;BME280;34791;52.752;8.346;2023-03-03T02:05:28;147752.72;;;1.22;100.00
48976;BME280;34791;52.752;8.346;2023-03-03T02:07:54;147744.97;;;1.18;100.00
48976;BME280;34791;52.752;8.346;2023-03-03T02:10:20;147754.00;;;1.22;100.00
48976;BME280;34791;52.752;8.346;2023-03-03T02:12:54;147757.84;;;1.24;100.00
48976;BME280;34791;52.752;8.346;2023-03-03T02:15:30;147765.53;;;1.27;100.00
48976;BME280;34791;52.752;8.346;2023-03-03T02:17:59;147760.41;;;1.25;100.00
48976;BME280;34791;52.752;8.346;2023-03-03T02:23:23;147765.53;;;1.27;100.00
48976;BME280;34791;52.752;8.346;2023-03-03T02:28:26;147765.53;;;1.27;100.00
48976;BME280;34791;52.752;8.346;2023-03-03T02:30:57;147768.09;;;1.28;100.00
48976;BME280;34791;52.752;8.346;2023-03-03T02:33:23;147764.25;;;1.26;100.00
48976;BME280;34791;52.752;8.346;2023-03-03T02:35:49;147765.53;;;1.27;100.00
48976;BME280;34791;52.752;8.346;2023-03-03T02:38:31;147760.41;;;1.25;100.00
48976;BME280;34791;52.752;8.346;2023-03-03T02:43:51;147759.13;;;1.24;100.00
48976;BME280;34791;52.752;8.346;2023-03-03T02:46:17;147768.09;;;1.28;100.00
48976;BME280;34791;52.752;8.346;2023-03-03T02:48:43;147766.81;;;1.27;100.00
48976;BME280;34791;52.752;8.346;2023-03-03T02:51:09;147769.38;;;1.28;100.00
48976;BME280;34791;52.752;8.346;2023-03-03T02:53:34;147774.50;;;1.30;100.00
48976;BME280;34791;52.752;8.346;2023-03-03T02:56:00;147762.97;;;1.26;100.00
48976;BME280;34791;52.752;8.346;2023-03-03T02:58:25;147755.28;;;1.23;100.00
48976;BME280;34791;52.752;8.346;2023-03-03T03:00:51;147770.66;;;1.29;100.00
48976;BME280;34791;52.752;8.346;2023-03-03T03:03:16;147765.53;;;1.27;100.00
48976;BME280;34791;52.752;8.346;2023-03-03T03:05:42;147766.81;;;1.27;100.00
48976;BME280;34791;52.752;8.346;2023-03-03T03:08:07;147766.81;;;1.27;100.00
48976;BME280;34791;52.752;8.346;2023-03-03T03:10:33;147773.22;;;1.30;100.00
48976;BME280;34791;52.752;8.346;2023-03-03T03:12:59;147768.09;;;1.28;100.00
48976;BME280;34791;52.752;8.346;2023-03-03T03:15:24;147770.66;;;1.29;100.00
48976;BME280;34791;52.752;8.346;2023-03-03T03:17:49;147778.38;;;1.32;100.00
48976;BME280;34791;52.752;8.346;2023-03-03T03:20:15;147775.78;;;1.31;100.00
48976;BME280;34791;52.752;8.346;2023-03-03T03:22:41;147784.81;;;1.34;100.00
48976;BME280;34791;52.752;8.346;2023-03-03T03:25:07;147780.94;;;1.33;100.00
48976;BME280;34791;52.752;8.346;2023-03-03T03:27:32;147783.53;;;1.34;100.00
48976;BME280;34791;52.752;8.346;2023-03-03T03:29:58;147778.38;;;1.32;100.00
48976;BME280;34791;52.752;8.346;2023-03-03T03:32:23;147778.38;;;1.32;100.00
48976;BME280;34791;52.752;8.346;2023-03-03T03:34:49;147784.81;;;1.34;100.00
48976;BME280;34791;52.752;8.346;2023-03-03T03:37:14;147791.22;;;1.37;100.00
48976;BME280;34791;52.752;8.346;2023-03-03T03:39:39;147791.22;;;1.37;100.00
48976;BME280;34791;52.752;8.346;2023-03-03T03:42:05;147792.53;;;1.37;100.00
48976;BME280;34791;52.752;8.346;2023-03-03T03:44:30;147795.09;;;1.38;100.00
48976;BME280;34791;52.752;8.346;2023-03-03T03:46:55;147793.81;;;1.38;100.00
48976;BME280;34791;52.752;8.346;2023-03-03T03:49:21;147791.22;;;1.37;100.00
48976;BME280;34791;52.752;8.346;2023-03-03T03:51:46;147796.38;;;1.39;100.00
48976;BME280;34791;52.752;8.346;2023-03-03T03:54:12;147804.06;;;1.42;100.00
48976;BME280;34791;52.752;8.346;2023-03-03T03:56:37;147796.38;;;1.39;100.00
48976;BME280;34791;52.752;8.346;2023-03-03T03:59:05;147791.22;;;1.37;100.00
48976;BME280;34791;52.752;8.346;2023-03-03T04:01:30;147795.09;;;1.38;100.00
48976;BME280;34791;52.752;8.346;2023-03-03T04:03:55;147800.22;;;1.40;100.00
48976;BME280;34791;52.752;8.346;2023-03-03T04:06:21;147793.81;;;1.38;100.00
48976;BME280;34791;52.752;8.346;2023-03-03T04:08:46;147782.25;;;1.33;100.00
48976;BME280;34791;52.752;8.346;2023-03-03T04:11:11;147787.38;;;1.35;100.00
48976;BME280;34791;52.752;8.346;2023-03-03T04:13:37;147791.22;;;1.37;100.00
48976;BME280;34791;52.752;8.346;2023-03-03T04:16:02;147796.38;;;1.39;100.00
48976;BME280;34791;52.752;8.346;2023-03-03T04:18:28;147791.22;;;1.37;100.00
48976;BME280;34791;52.752;8.346;2023-03-03T04:20:53;147786.09;;;1.35;100.00
48976;BME280;34791;52.752;8.346;2023-03-03T04:23:19;147783.53;;;1.34;100.00
48976;BME280;34791;52.752;8.346;2023-03-03T04:25:45;147771.94;;;1.29;100.00
48976;BME280;34791;52.752;8.346;2023-03-03T04:28:12;147765.53;;;1.27;100.00
48976;BME280;34791;52.752;8.346;2023-03-03T04:30:37;147768.09;;;1.28;100.00
48976;BME280;34791;52.752;8.346;2023-03-03T04:33:03;147760.41;;;1.25;100.00
48976;BME280;34791;52.752;8.346;2023-03-03T04:35:28;147760.41;;;1.25;100.00
48976;BME280;34791;52.752;8.346;2023-03-03T04:37:53;147773.22;;;1.30;100.00
48976;BME280;34791;52.752;8.346;2023-03-03T04:40:19;147773.22;;;1.30;100.00
48976;BME280;34791;52.752;8.346;2023-03-03T04:42:44;147775.78;;;1.31;100.00
48976;BME280;34791;52.752;8.346;2023-03-03T04:45:10;147765.53;;;1.27;100.00
48976;BME280;34791;52.752;8.346;2023-03-03T04:47:36;147784.81;;;1.34;100.00
48976;BME280;34791;52.752;8.346;2023-03-03T04:50:01;147777.06;;;1.31;100.00
48976;BME280;34791;52.752;8.346;2023-03-03T04:52:27;147769.38;;;1.28;100.00
48976;BME280;34791;52.752;8.346;2023-03-03T04:54:53;147768.09;;;1.28;100.00
48976;BME280;34791;52.752;8.346;2023-03-03T04:57:18;147762.97;;;1.26;100.00
48976;BME280;34791;52.752;8.346;2023-03-03T04:59:43;147757.84;;;1.24;100.00
48976;BME280;34791;52.752;8.346;2023-03-03T05:02:09;147757.84;;;1.24;100.00
48976;BME280;34791;52.752;8.346;2023-03-03T05:04:35;147747.53;;;1.20;100.00
48976;BME280;34791;52.752;8.346;2023-03-03T05:07:00;147739.84;;;1.16;100.00
48976;BME280;34791;52.752;8.346;2023-03-03T05:09:26;147738.56;;;1.16;100.00
48976;BME280;34791;52.752;8.346;2023-03-03T05:11:51;147743.69;;;1.18;100.00
48976;BME280;34791;52.752;8.346;2023-03-03T05:14:17;147757.84;;;1.24;100.00
48976;BME280;34791;52.752;8.346;2023-03-03T05:16:43;147759.13;;;1.24;100.00
48976;BME280;34791;52.752;8.346;2023-03-03T05:19:08;147760.41;;;1.25;100.00
48976;BME280;34791;52.752;8.346;2023-03-03T05:21:33;147762.97;;;1.26;100.00
48976;BME280;34791;52.752;8.346;2023-03-03T05:23:59;147762.97;;;1.26;100.00
48976;BME280;34791;52.752;8.346;2023-03-03T05:26:24;147757.84;;;1.24;100.00
48976;BME280;34791;52.752;8.346;2023-03-03T05:28:50;147751.38;;;1.21;100.00
48976;BME280;34791;52.752;8.346;2023-03-03T05:31:15;147765.53;;;1.27;100.00
48976;BME280;34791;52.752;8.346;2023-03-03T05:33:40;147760.41;;;1.25;100.00
48976;BME280;34791;52.752;8.346;2023-03-03T05:36:06;147747.53;;;1.20;100.00
48976;BME280;34791;52.752;8.346;2023-03-03T05:38:32;147747.53;;;1.20;100.00
48976;BME280;34791;52.752;8.346;2023-03-03T05:40:57;147762.97;;;1.26;100.00
48976;BME280;34791;52.752;8.346;2023-03-03T05:43:22;147773.22;;;1.30;100.00
48976;BME280;34791;52.752;8.346;2023-03-03T05:45:53;147769.38;;;1.28;100.00
48976;BME280;34791;52.752;8.346;2023-03-03T05:48:19;147742.41;;;1.17;100.00
48976;BME280;34791;52.752;8.346;2023-03-03T05:50:44;147734.72;;;1.14;100.00
48976;BME280;34791;52.752;8.346;2023-03-03T05:53:10;147736.00;;;1.15;100.00
48976;BME280;34791;52.752;8.346;2023-03-03T05:55:38;147734.72;;;1.14;100.00
48976;BME280;34791;52.752;8.346;2023-03-03T05:58:13;147737.28;;;1.15;100.00
48976;BME280;34791;52.752;8.346;2023-03-03T06:00:38;147738.56;;;1.16;100.00
48976;BME280;34791;52.752;8.346;2023-03-03T06:03:04;147732.16;;;1.13;100.00
48976;BME280;34791;52.752;8.346;2023-03-03T06:05:29;147736.00;;;1.15;100.00
48976;BME280;34791;52.752;8.346;2023-03-03T06:07:54;147742.41;;;1.17;100.00
48976;BME280;34791;52.752;8.346;2023-03-03T06:10:20;147736.00;;;1.15;100.00
48976;BME280;34791;52.752;8.346;2023-03-03T06:12:45;147729.56;;;1.12;100.00
48976;BME280;34791;52.752;8.346;2023-03-03T06:15:10;147721.88;;;1.09;100.00
48976;BME280;34791;52.752;8.346;2023-03-03T06:17:36;147756.56;;;1.23;100.00
48976;BME280;34791;52.752;8.346;2023-03-03T06:20:01;147747.53;;;1.20;100.00
48976;BME280;34791;52.752;8.346;2023-03-03T06:22:29;147762.97;;;1.26;100.00
48976;BME280;34791;52.752;8.346;2023-03-03T06:24:54;147770.66;;;1.29;100.00
48976;BME280;34791;52.752;8.346;2023-03-03T06:27:19;147779.66;;;1.32;100.00
48976;BME280;34791;52.752;8.346;2023-03-03T06:29:45;147783.53;;;1.34;100.00
48976;BME280;34791;52.752;8.346;2023-03-03T06:32:13;147779.66;;;1.32;100.00
48976;BME280;34791;52.752;8.346;2023-03-03T06:34:38;147775.78;;;1.31;100.00
48976;BME280;34791;52.752;8.346;2023-03-03T06:37:04;147773.22;;;1.30;100.00
48976;BME280;34791;52.752;8.346;2023-03-03T06:39:29;147780.94;;;1.33;100.00
48976;BME280;34791;52.752;8.346;2023-03-03T06:41:55;147791.22;;;1.37;100.00
48976;BME280;34791;52.752;8.346;2023-03-03T06:44:20;147784.81;;;1.34;100.00
48976;BME280;34791;52.752;8.346;2023-03-03T06:46:45;147778.38;;;1.32;100.00
48976;BME280;34791;52.752;8.346;2023-03-03T06:49:11;147789.94;;;1.36;100.00
48976;BME280;34791;52.752;8.346;2023-03-03T06:51:38;147788.66;;;1.36;100.00
48976;BME280;34791;52.752;8.346;2023-03-03T06:54:13;147801.50;;;1.41;100.00
48976;BME280;34791;52.752;8.346;2023-03-03T06:56:40;147802.78;;;1.41;100.00
48976;BME280;34791;52.752;8.346;2023-03-03T06:59:17;147804.06;;;1.42;100.00
48976;BME280;34791;52.752;8.346;2023-03-03T07:01:45;147814.38;;;1.46;100.00
48976;BME280;34791;52.752;8.346;2023-03-03T07:04:29;147837.47;;;1.55;100.00
48976;BME280;34791;52.752;8.346;2023-03-03T07:06:57;147828.47;;;1.52;100.00
48976;BME280;34791;52.752;8.346;2023-03-03T07:09:28;147838.75;;;1.56;100.00
48976;BME280;34791;52.752;8.346;2023-03-03T07:11:59;147819.50;;;1.48;100.00
48976;BME280;34791;52.752;8.346;2023-03-03T07:14:25;147815.66;;;1.46;100.00
48976;BME280;34791;52.752;8.346;2023-03-03T07:17:03;147834.91;;;1.54;100.00
48976;BME280;34791;52.752;8.346;2023-03-03T07:19:34;147832.31;;;1.53;100.00
48976;BME280;34791;52.752;8.346;2023-03-03T07:22:19;147837.47;;;1.55;100.00
48976;BME280;34791;52.752;8.346;2023-03-03T07:24:48;147841.31;;;1.57;100.00
48976;BME280;34791;52.752;8.346;2023-03-03T07:27:27;147870.88;;;1.68;100.00
48976;BME280;34791;52.752;8.346;2023-03-03T07:29:58;147906.88;;;1.83;100.00
48976;BME280;34791;52.752;8.346;2023-03-03T07:34:56;147954.41;;;2.01;100.00
48976;BME280;34791;52.752;8.346;2023-03-03T07:39:49;147962.13;;;2.04;100.00
48976;BME280;34791;52.752;8.346;2023-03-03T07:42:46;147983.97;;;2.13;100.00
48976;BME280;34791;52.752;8.346;2023-03-03T07:45:34;147968.59;;;2.07;100.00
48976;BME280;34791;52.752;8.346;2023-03-03T07:48:18;147991.69;;;2.16;100.00
48976;BME280;34791;52.752;8.346;2023-03-03T07:50:48;148038.00;;;2.34;100.00
48976;BME280;34791;52.752;8.346;2023-03-03T07:53:23;147996.88;;;2.18;100.00
48976;BME280;34791;52.752;8.346;2023-03-03T07:55:50;148040.56;;;2.35;100.00
48976;BME280;34791;52.752;8.346;2023-03-03T07:58:26;148002.00;;;2.20;100.00
48976;BME280;34791;52.752;8.346;2023-03-03T08:01:28;148040.56;;;2.35;100.00
48976;BME280;34791;52.752;8.346;2023-03-03T08:03:56;148049.53;;;2.39;100.00
48976;BME280;34791;52.752;8.346;2023-03-03T08:12:01;148052.13;;;2.40;100.00
48976;BME280;34791;52.752;8.346;2023-03-03T08:14:35;148074.00;;;2.49;100.00
48976;BME280;34791;52.752;8.346;2023-03-03T08:17:13;148106.13;;;2.61;100.00
48976;BME280;34791;52.752;8.346;2023-03-03T08:19:41;148122.88;;;2.68;100.00
48976;BME280;34791;52.752;8.346;2023-03-03T08:22:16;148142.16;;;2.76;100.00
48976;BME280;34791;52.752;8.346;2023-03-03T08:24:42;148179.44;;;2.90;100.00
48976;BME280;34791;52.752;8.346;2023-03-03T08:27:07;148210.31;;;3.03;100.00
48976;BME280;34791;52.752;8.346;2023-03-03T08:29:33;148218.06;;;3.06;100.00
48976;BME280;34791;52.752;8.346;2023-03-03T08:31:58;148227.06;;;3.09;100.00
48976;BME280;34791;52.752;8.346;2023-03-03T08:34:23;148185.91;;;2.93;100.00
48976;BME280;34791;52.752;8.346;2023-03-03T08:36:49;148246.38;;;3.17;100.00
48976;BME280;34791;52.752;8.346;2023-03-03T08:39:15;148274.69;;;3.28;100.00
48976;BME280;34791;52.752;8.346;2023-03-03T08:41:40;148312.00;;;3.43;100.00
48976;BME280;34791;52.752;8.346;2023-03-03T08:44:08;148339.03;;;3.53;100.00
48976;BME280;34791;52.752;8.346;2023-03-03T08:46:33;148331.28;;;3.50;100.00
48976;BME280;34791;52.752;8.346;2023-03-03T08:48:59;148300.41;;;3.38;100.00
48976;BME280;34791;52.752;8.346;2023-03-03T08:51:24;148360.91;;;3.62;100.00
48976;BME280;34791;52.752;8.346;2023-03-03T08:53:51;148411.13;;;3.82;100.00
48976;BME280;34791;52.752;8.346;2023-03-03T08:56:16;148400.84;;;3.78;100.00
48976;BME280;34791;52.752;8.346;2023-03-03T08:58:41;148460.06;;;4.01;100.00
48976;BME280;34791;52.752;8.346;2023-03-03T09:01:13;148462.66;;;4.02;100.00
48976;BME280;34791;52.752;8.346;2023-03-03T09:03:39;148449.72;;;3.97;100.00
48976;BME280;34791;52.752;8.346;2023-03-03T09:06:05;148478.06;;;4.08;100.00
48976;BME280;34791;52.752;8.346;2023-03-03T09:08:30;148483.22;;;4.10;100.00
48976;BME280;34791;52.752;8.346;2023-03-03T09:10:56;148503.84;;;4.19;100.00
48976;BME280;34791;52.752;8.346;2023-03-03T09:13:21;148458.78;;;4.01;100.00
48976;BME280;34791;52.752;8.346;2023-03-03T09:15:47;148563.09;;;4.42;100.00
48976;BME280;34791;52.752;8.346;2023-03-03T09:18:21;148617.22;;;4.63;100.00
48976;BME280;34791;52.752;8.346;2023-03-03T09:20:51;148663.59;;;4.82;100.00
48976;BME280;34791;52.752;8.346;2023-03-03T09:23:36;148624.94;;;4.66;100.00
48976;BME280;34791;52.752;8.346;2023-03-03T09:26:27;148712.56;;;5.01;100.00
48976;BME280;34791;52.752;8.346;2023-03-03T09:31:50;148890.53;;;5.71;100.00
48976;BME280;34791;52.752;8.346;2023-03-03T09:34:24;148955.06;;;5.97;100.00
48976;BME280;34791;52.752;8.346;2023-03-03T09:36:53;149086.66;;;6.49;100.00
48976;BME280;34791;52.752;8.346;2023-03-03T09:47:45;149319.09;;;7.40;100.00
48976;BME280;34791;52.752;8.346;2023-03-03T09:50:44;149341.00;;;7.49;100.00
48976;BME280;34791;52.752;8.346;2023-03-03T09:56:34;149357.84;;;7.55;100.00
48976;BME280;34791;52.752;8.346;2023-03-03T10:04:43;149285.50;;;7.27;100.00
48976;BME280;34791;52.752;8.346;2023-03-03T10:07:37;149099.53;;;6.54;100.00
48976;BME280;34791;52.752;8.346;2023-03-03T10:13:12;149388.84;;;7.68;100.00
48976;BME280;34791;52.752;8.346;2023-03-03T10:21:18;149254.47;;;7.15;100.00
48976;BME280;34791;52.752;8.346;2023-03-03T10:29:05;149032.44;;;6.27;100.00
48976;BME280;34791;52.752;8.346;2023-03-03T10:37:33;149507.72;;;8.14;100.00
48976;BME280;34791;52.752;8.346;2023-03-03T10:43:21;149493.50;;;8.09;100.00
48976;BME280;34791;52.752;8.346;2023-03-03T11:01:49;149352.66;;;7.53;100.00
48976;BME280;34791;52.752;8.346;2023-03-03T11:07:01;149329.41;;;7.44;100.00
48976;BME280;34791;52.752;8.346;2023-03-03T11:12:36;149567.25;;;8.38;100.00
48976;BME280;34791;52.752;8.346;2023-03-03T11:23:18;149266.13;;;7.19;100.00
48976;BME280;34791;52.752;8.346;2023-03-03T11:32:06;149487.03;;;8.06;100.00
48976;BME280;34791;52.752;8.346;2023-03-03T11:39:48;149337.16;;;7.47;100.00
48976;BME280;34791;52.752;8.346;2023-03-03T11:45:38;149081.50;;;6.46;100.00
48976;BME280;34791;52.752;8.346;2023-03-03T11:48:14;149131.84;;;6.66;100.00
48976;BME280;34791;52.752;8.346;2023-03-03T11:51:01;149373.31;;;7.61;100.00
48976;BME280;34791;52.752;8.346;2023-03-03T11:53:47;149423.72;;;7.81;100.00
48976;BME280;34791;52.752;8.346;2023-03-03T11:56:33;149487.03;;;8.06;100.00
48976;BME280;34791;52.752;8.346;2023-03-03T12:01:59;149704.28;;;8.92;100.00
48976;BME280;34791;52.752;8.346;2023-03-03T12:04:38;149891.88;;;9.65;100.00
48976;BME280;34791;52.752;8.346;2023-03-03T12:12:33;149768.97;;;9.17;100.00
48976;BME280;34791;52.752;8.346;2023-03-03T12:23:20;149584.03;;;8.44;100.00
48976;BME280;34791;52.752;8.346;2023-03-03T12:26:00;149409.53;;;7.76;100.00
48976;BME280;34791;52.752;8.346;2023-03-03T12:28:31;149419.84;;;7.80;100.00
48976;BME280;34791;52.752;8.346;2023-03-03T12:36:53;149503.88;;;8.13;100.00
48976;BME280;34791;52.752;8.346;2023-03-03T12:42:24;149649.97;;;8.70;100.00
48976;BME280;34791;52.752;8.346;2023-03-03T12:47:37;149520.63;;;8.19;100.00
48976;BME280;34791;52.752;8.346;2023-03-03T12:52:59;149434.03;;;7.85;100.00
48976;BME280;34791;52.752;8.346;2023-03-03T12:58:02;149452.16;;;7.92;100.00
48976;BME280;34791;52.752;8.346;2023-03-03T13:01:21;149507.72;;;8.14;100.00
48976;BME280;34791;52.752;8.346;2023-03-03T13:03:39;149463.75;;;7.97;100.00
48976;BME280;34791;52.752;8.346;2023-03-03T13:14:34;149347.50;;;7.51;100.00
48976;BME280;34791;52.752;8.346;2023-03-03T13:19:39;149475.44;;;8.02;100.00
48976;BME280;34791;52.752;8.346;2023-03-03T13:28:01;149461.19;;;7.96;100.00
48976;BME280;34791;52.752;8.346;2023-03-03T13:30:32;149465.06;;;7.98;100.00
48976;BME280;34791;52.752;8.346;2023-03-03T13:33:10;149453.44;;;7.93;100.00
48976;BME280;34791;52.752;8.346;2023-03-03T13:35:49;149432.75;;;7.85;100.00
48976;BME280;34791;52.752;8.346;2023-03-03T13:38:39;149445.69;;;7.90;100.00
48976;BME280;34791;52.752;8.346;2023-03-03T13:41:35;149409.53;;;7.76;100.00
48976;BME280;34791;52.752;8.346;2023-03-03T13:44:27;149441.81;;;7.88;100.00
48976;BME280;34791;52.752;8.346;2023-03-03T13:47:21;149396.56;;;7.71;100.00
48976;BME280;34791;52.752;8.346;2023-03-03T13:52:25;149492.19;;;8.08;100.00
48976;BME280;34791;52.752;8.346;2023-03-03T13:57:53;149466.34;;;7.98;100.00
48976;BME280;34791;52.752;8.346;2023-03-03T14:00:42;149565.94;;;8.37;100.00
48976;BME280;34791;52.752;8.346;2023-03-03T14:06:17;149541.34;;;8.28;100.00
48976;BME280;34791;52.752;8.346;2023-03-03T14:09:15;149567.25;;;8.38;100.00
48976;BME280;34791;52.752;8.346;2023-03-03T14:20:17;149381.09;;;7.64;100.00
48976;BME280;34791;52.752;8.346;2023-03-03T14:23:10;149412.09;;;7.77;100.00
48976;BME280;34791;52.752;8.346;2023-03-03T14:25:59;149295.84;;;7.31;100.00
48976;BME280;34791;52.752;8.346;2023-03-03T14:28:41;149384.97;;;7.66;100.00
48976;BME280;34791;52.752;8.346;2023-03-03T14:31:29;149341.00;;;7.49;100.00
48976;BME280;34791;52.752;8.346;2023-03-03T14:36:49;149444.41;;;7.89;100.00
48976;BME280;34791;52.752;8.346;2023-03-03T14:39:32;149468.94;;;7.99;100.00
48976;BME280;34791;52.752;8.346;2023-03-03T14:41:58;149492.19;;;8.08;100.00
48976;BME280;34791;52.752;8.346;2023-03-03T14:44:25;149423.72;;;7.81;100.00
48976;BME280;34791;52.752;8.346;2023-03-03T14:49:37;149386.25;;;7.67;100.00
48976;BME280;34791;52.752;8.346;2023-03-03T14:54:48;149391.41;;;7.69;100.00
48976;BME280;34791;52.752;8.346;2023-03-03T14:57:21;149409.53;;;7.76;100.00
48976;BME280;34791;52.752;8.346;2023-03-03T15:02:29;149262.25;;;7.18;100.00
48976;BME280;34791;52.752;8.346;2023-03-03T15:05:12;149253.19;;;7.14;100.00
48976;BME280;34791;52.752;8.346;2023-03-03T15:07:39;149241.56;;;7.10;100.00
48976;BME280;34791;52.752;8.346;2023-03-03T15:10:05;149228.69;;;7.04;100.00
48976;BME280;34791;52.752;8.346;2023-03-03T15:17:40;149214.47;;;6.99;100.00
48976;BME280;34791;52.752;8.346;2023-03-03T15:33:47;149153.78;;;6.75;100.00
48976;BME280;34791;52.752;8.346;2023-03-03T15:39:09;149152.47;;;6.74;100.00
48976;BME280;34791;52.752;8.346;2023-03-03T15:41:43;149142.16;;;6.70;100.00
48976;BME280;34791;52.752;8.346;2023-03-03T15:44:31;149122.78;;;6.63;100.00
48976;BME280;34791;52.752;8.346;2023-03-03T15:55:56;149127.94;;;6.65;100.00
48976;BME280;34791;52.752;8.346;2023-03-03T15:58:10;149100.88;;;6.54;100.00
48976;BME280;34791;52.752;8.346;2023-03-03T16:03:38;149071.19;;;6.42;100.00
48976;BME280;34791;52.752;8.346;2023-03-03T16:06:20;149104.75;;;6.56;100.00
48976;BME280;34791;52.752;8.346;2023-03-03T16:14:30;149099.53;;;6.54;100.00
48976;BME280;34791;52.752;8.346;2023-03-03T16:28:18;149077.63;;;6.45;100.00
48976;BME280;34791;52.752;8.346;2023-03-03T16:30:53;149058.25;;;6.37;100.00
48976;BME280;34791;52.752;8.346;2023-03-03T16:38:44;149049.25;;;6.34;100.00
48976;BME280;34791;52.752;8.346;2023-03-03T16:44:18;149038.88;;;6.30;100.00
48976;BME280;34791;52.752;8.346;2023-03-03T16:46:49;149009.25;;;6.18;100.00
48976;BME280;34791;52.752;8.346;2023-03-03T16:49:28;149019.56;;;6.22;100.00
48976;BME280;34791;52.752;8.346;2023-03-03T16:52:13;149010.53;;;6.19;100.00
48976;BME280;34791;52.752;8.346;2023-03-03T16:57:32;148992.47;;;6.11;100.00
48976;BME280;34791;52.752;8.346;2023-03-03T17:02:53;148988.59;;;6.10;100.00
48976;BME280;34791;52.752;8.346;2023-03-03T17:10:41;148965.38;;;6.01;100.00
48976;BME280;34791;52.752;8.346;2023-03-03T17:27:02;148921.47;;;5.83;100.00
48976;BME280;34791;52.752;8.346;2023-03-03T17:33:12;148931.78;;;5.87;100.00
48976;BME280;34791;52.752;8.346;2023-03-03T17:35:45;148920.19;;;5.83;100.00
48976;BME280;34791;52.752;8.346;2023-03-03T17:43:38;148898.25;;;5.74;100.00
48976;BME280;34791;52.752;8.346;2023-03-03T17:46:13;148899.53;;;5.75;100.00
48976;BME280;34791;52.752;8.346;2023-03-03T17:48:56;148913.69;;;5.80;100.00
48976;BME280;34791;52.752;8.346;2023-03-03T17:54:10;148921.47;;;5.83;100.00